Time;durP1;ratioP1;P1;durP2;ratioP2;P2;SDS_P1;SDS_P2;PMS_P1;PMS_P2;Temp;Humidity;BMP_temperature;BMP_pressure;BME280_temperature;BME280_humidity;BME280_pressure;Samples;Min_cycle;Max_cycle;Signal;HPM_P1;HPM_P2
2022/10/11 00:00:29;;;;;;;510.27;482.77;;;14.40;49.50;;;;;;4979463;28;20454;-72
2022/10/11 00:02:55;;;;;;;619.30;582.80;;;14.40;49.00;;;;;;4979896;28;20480;-73
2022/10/11 00:05:21;;;;;;;460.03;434.43;;;14.40;48.40;;;;;;4979815;28;20859;-73
2022/10/11 00:07:46;;;;;;;621.57;584.10;;;14.50;49.70;;;;;;4979525;28;20918;-73
2022/10/11 00:10:12;;;;;;;600.57;566.53;;;14.50;47.60;;;;;;4983982;28;20221;-72
2022/10/11 00:12:37;;;;;;;757.83;703.03;;;14.60;47.60;;;;;;4986162;28;20257;-70
2022/10/11 00:15:05;;;;;;;541.50;508.67;;;14.60;47.40;;;;;;4983639;28;20430;-71
2022/10/11 00:17:31;;;;;;;769.13;715.33;;;14.60;48.00;;;;;;4979958;28;20217;-70
2022/10/11 00:19:56;;;;;;;626.70;591.77;;;14.60;48.40;;;;;;4981770;28;20491;-71
2022/10/11 00:22:22;;;;;;;605.33;572.83;;;14.50;48.60;;;;;;4996980;28;20320;-70
2022/10/11 00:24:47;;;;;;;441.00;416.03;;;14.60;48.00;;;;;;4991128;28;20705;-73
2022/10/11 00:27:13;;;;;;;740.33;688.40;;;14.60;48.10;;;;;;4987297;28;20178;-73
2022/10/11 00:29:38;;;;;;;679.77;635.73;;;14.60;47.60;;;;;;4989794;28;20209;-71
2022/10/11 00:32:05;;;;;;;685.40;639.23;;;14.50;48.10;;;;;;4988663;28;20193;-70
2022/10/11 00:34:30;;;;;;;639.43;605.07;;;14.50;48.20;;;;;;4986143;28;20252;-70
2022/10/11 00:36:56;;;;;;;392.30;369.00;;;14.40;47.90;;;;;;4981749;28;20433;-72
2022/10/11 00:39:21;;;;;;;628.73;589.10;;;14.50;49.50;;;;;;4976315;28;20255;-73
2022/10/11 00:41:48;;;;;;;515.93;486.57;;;14.50;47.90;;;;;;4975071;28;20184;-72
2022/10/11 00:44:23;;;;;;;528.27;495.50;;;14.60;47.60;;;;;;4975249;28;20166;-73
2022/10/11 00:46:59;;;;;;;678.63;638.93;;;14.50;47.20;;;;;;4975934;28;20910;-72
2022/10/11 00:49:35;;;;;;;619.60;581.50;;;14.50;46.50;;;;;;4974866;28;20432;-71
2022/10/11 00:52:06;;;;;;;567.17;532.93;;;14.50;46.50;;;;;;4975160;28;20428;-72
2022/10/11 00:54:36;;;;;;;509.63;477.50;;;14.50;47.50;;;;;;4975794;28;20405;-73
2022/10/11 00:57:10;;;;;;;812.10;755.50;;;14.50;47.30;;;;;;4975512;28;20424;-72
2022/10/11 00:59:39;;;;;;;598.63;562.77;;;14.50;46.60;;;;;;4976181;28;20942;-72
2022/10/11 01:02:06;;;;;;;789.37;731.77;;;14.40;47.20;;;;;;4976127;28;20463;-72
2022/10/11 01:04:32;;;;;;;523.77;495.37;;;14.40;46.90;;;;;;4974578;28;20424;-72
2022/10/11 01:06:58;;;;;;;497.00;468.07;;;14.30;46.80;;;;;;4974708;28;20785;-73
2022/10/11 01:09:25;;;;;;;559.27;528.80;;;14.20;47.60;;;;;;4975292;28;20490;-72
2022/10/11 01:11:55;;;;;;;491.40;463.90;;;14.30;46.50;;;;;;4975240;28;20184;-73
2022/10/11 01:14:39;;;;;;;629.23;590.37;;;14.20;46.60;;;;;;4975244;28;20427;-73
2022/10/11 01:17:42;;;;;;;467.97;440.00;;;14.10;46.60;;;;;;4974893;28;20804;-74
2022/10/11 01:20:46;;;;;;;721.13;672.47;;;14.00;46.90;;;;;;4973854;28;20672;-72
2022/10/11 01:23:40;;;;;;;685.47;636.27;;;14.00;46.70;;;;;;4974654;28;20870;-72
2022/10/11 01:26:34;;;;;;;401.60;378.30;;;13.90;47.20;;;;;;4974467;28;20405;-72
2022/10/11 01:29:31;;;;;;;589.53;557.03;;;13.90;48.80;;;;;;4974151;28;20408;-72
2022/10/11 01:32:08;;;;;;;647.90;608.47;;;14.00;48.80;;;;;;4963435;28;20444;-72
2022/10/11 01:34:57;;;;;;;710.10;661.13;;;13.90;48.30;;;;;;4974301;28;20415;-71
2022/10/11 01:37:31;;;;;;;732.00;683.67;;;13.90;48.20;;;;;;4973854;28;20468;-72
2022/10/11 01:40:27;;;;;;;705.37;661.73;;;13.80;48.10;;;;;;4993456;23;20531;-70
2022/10/11 01:42:54;;;;;;;641.93;601.83;;;13.70;48.30;;;;;;5007805;28;20442;-68
2022/10/11 01:45:20;;;;;;;527.30;494.93;;;13.70;48.50;;;;;;5013469;28;20450;-68
2022/10/11 01:47:46;;;;;;;614.67;574.27;;;13.80;49.10;;;;;;5014463;28;20493;-68
2022/10/11 01:50:33;;;;;;;537.63;502.50;;;13.80;49.10;;;;;;5005325;28;20857;-71
2022/10/11 01:53:16;;;;;;;698.97;656.23;;;13.80;48.70;;;;;;4993293;28;20177;-68
2022/10/11 01:55:50;;;;;;;498.47;468.77;;;13.70;47.70;;;;;;4993963;28;20408;-70
2022/10/11 01:58:16;;;;;;;622.23;583.90;;;13.60;48.90;;;;;;4994312;28;20469;-68
2022/10/11 02:00:44;;;;;;;552.77;517.43;;;13.60;48.40;;;;;;4994419;28;20443;-68
2022/10/11 02:03:30;;;;;;;494.00;464.47;;;13.50;49.40;;;;;;4993627;28;20187;-68
2022/10/11 02:06:04;;;;;;;568.13;533.03;;;13.40;49.40;;;;;;4993708;28;20425;-70
2022/10/11 02:08:52;;;;;;;669.83;627.10;;;13.40;49.40;;;;;;4985050;28;20428;-70
2022/10/11 02:11:32;;;;;;;706.80;661.93;;;13.40;49.40;;;;;;4973907;28;20444;-68
2022/10/11 02:14:11;;;;;;;627.73;588.07;;;13.30;49.30;;;;;;4982944;28;20523;-68
2022/10/11 02:16:47;;;;;;;690.20;645.83;;;13.20;49.20;;;;;;4992849;28;20976;-68
2022/10/11 02:19:17;;;;;;;445.17;419.73;;;13.20;49.50;;;;;;4992166;28;20461;-69
2022/10/11 02:21:47;;;;;;;424.30;401.37;;;13.10;49.90;;;;;;4992407;28;20761;-69
2022/10/11 02:24:33;;;;;;;584.37;551.90;;;13.20;52.10;;;;;;4994929;28;20412;-68
2022/10/11 02:27:02;;;;;;;584.23;550.80;;;13.30;50.00;;;;;;4991695;28;20419;-69
2022/10/11 02:29:31;;;;;;;451.70;425.20;;;13.20;50.60;;;;;;4973094;28;20565;-68
2022/10/11 02:31:59;;;;;;;461.07;433.80;;;13.20;52.30;;;;;;4975197;28;20416;-68
2022/10/11 02:34:30;;;;;;;478.60;451.53;;;13.20;52.50;;;;;;4977193;28;20782;-68
2022/10/11 02:37:03;;;;;;;460.77;435.67;;;13.20;52.40;;;;;;4975682;28;20420;-68
2022/10/11 02:39:50;;;;;;;438.47;414.80;;;13.20;51.80;;;;;;4974552;28;20457;-70
2022/10/11 02:42:21;;;;;;;362.07;341.87;;;13.10;51.60;;;;;;4973641;28;20490;-68
2022/10/11 02:44:58;;;;;;;598.40;562.07;;;13.20;51.90;;;;;;4971844;28;20454;-68
2022/10/11 02:47:25;;;;;;;740.03;690.10;;;13.20;51.50;;;;;;4978804;28;20789;-69
2022/10/11 02:49:51;;;;;;;731.13;682.70;;;13.10;50.60;;;;;;4992965;28;20427;-67
2022/10/11 02:52:17;;;;;;;655.77;616.80;;;13.10;50.80;;;;;;4992034;28;20491;-68
2022/10/11 02:54:42;;;;;;;682.03;642.87;;;13.10;50.80;;;;;;4993185;28;20433;-67
2022/10/11 02:57:08;;;;;;;388.23;367.10;;;13.00;51.00;;;;;;4985830;28;20274;-70
2022/10/11 02:59:33;;;;;;;489.70;458.07;;;13.00;52.80;;;;;;4973431;28;20606;-70
2022/10/11 03:01:59;;;;;;;499.23;470.23;;;13.10;51.40;;;;;;4973657;28;20375;-69
2022/10/11 03:04:24;;;;;;;640.53;601.47;;;13.20;51.50;;;;;;4972777;28;20187;-70
2022/10/11 03:06:50;;;;;;;404.70;381.80;;;13.20;50.40;;;;;;4975147;28;20567;-69
2022/10/11 03:09:16;;;;;;;397.43;375.47;;;13.20;52.10;;;;;;4992439;28;20727;-70
2022/10/11 03:11:41;;;;;;;371.80;350.97;;;13.30;53.40;;;;;;4990348;28;20214;-69
2022/10/11 03:14:07;;;;;;;617.37;580.60;;;13.40;50.90;;;;;;4993348;28;20190;-70
2022/10/11 03:16:32;;;;;;;634.57;597.00;;;13.40;50.70;;;;;;4992331;28;20233;-70
2022/10/11 03:18:58;;;;;;;600.83;564.10;;;13.40;51.10;;;;;;4991418;28;20208;-70
2022/10/11 03:21:24;;;;;;;600.00;561.30;;;13.40;50.90;;;;;;4992235;28;20196;-70
2022/10/11 03:23:49;;;;;;;364.57;343.20;;;13.50;50.30;;;;;;4991043;28;20656;-70
2022/10/11 03:26:15;;;;;;;548.77;517.93;;;13.50;50.40;;;;;;4991244;28;20760;-70
2022/10/11 03:28:40;;;;;;;658.73;621.40;;;13.60;50.20;;;;;;4973908;28;20185;-70
2022/10/11 03:31:06;;;;;;;574.37;541.67;;;13.50;50.10;;;;;;4972174;28;20207;-70
2022/10/11 03:33:31;;;;;;;510.87;477.67;;;13.50;50.80;;;;;;4974330;28;20184;-69
2022/10/11 03:35:57;;;;;;;665.17;625.03;;;13.60;50.90;;;;;;4973133;28;20663;-70
2022/10/11 03:38:23;;;;;;;670.20;627.27;;;13.60;49.60;;;;;;4989593;28;20582;-70
2022/10/11 03:40:48;;;;;;;675.53;632.20;;;13.50;49.50;;;;;;4990265;28;20576;-70
2022/10/11 03:43:14;;;;;;;557.83;522.30;;;13.50;50.10;;;;;;4992722;28;20269;-69
2022/10/11 03:45:43;;;;;;;393.77;368.53;;;13.50;49.50;;;;;;4992224;28;20414;-70
2022/10/11 03:48:09;;;;;;;481.47;452.80;;;13.50;49.50;;;;;;4977072;28;20196;-70
2022/10/11 03:50:35;;;;;;;652.10;612.03;;;13.60;49.60;;;;;;4972272;28;20452;-70
2022/10/11 03:53:01;;;;;;;548.03;514.27;;;13.50;48.50;;;;;;4974449;28;20442;-70
2022/10/11 03:55:27;;;;;;;477.27;448.17;;;13.50;49.50;;;;;;4976449;28;20672;-72
2022/10/11 03:57:52;;;;;;;573.80;537.53;;;13.50;49.90;;;;;;4991113;28;20553;-70
2022/10/11 04:00:18;;;;;;;697.80;653.10;;;13.50;49.50;;;;;;4993998;28;20197;-70
2022/10/11 04:02:44;;;;;;;747.30;701.23;;;13.50;49.90;;;;;;4998524;28;20255;-70
2022/10/11 04:05:11;;;;;;;540.17;507.00;;;13.40;49.80;;;;;;4995666;28;20442;-70
2022/10/11 04:07:37;;;;;;;591.90;556.73;;;13.40;51.10;;;;;;4993530;28;20186;-70
2022/10/11 04:10:04;;;;;;;554.10;522.43;;;13.40;50.40;;;;;;4994677;28;20916;-70
2022/10/11 04:12:29;;;;;;;702.90;657.33;;;13.50;50.50;;;;;;4995642;28;20797;-69
2022/10/11 04:14:55;;;;;;;635.60;596.87;;;13.40;49.40;;;;;;4995501;28;20423;-67
2022/10/11 04:17:20;;;;;;;494.63;462.10;;;13.40;50.50;;;;;;4995462;28;20177;-67
2022/10/11 04:19:46;;;;;;;626.13;586.80;;;13.40;50.80;;;;;;4995304;28;20579;-68
2022/10/11 04:22:12;;;;;;;589.43;554.67;;;13.40;50.70;;;;;;4994588;28;20515;-68
2022/10/11 04:24:37;;;;;;;603.53;563.60;;;13.40;51.30;;;;;;4994786;28;20205;-68
2022/10/11 04:27:03;;;;;;;555.10;522.17;;;13.50;51.50;;;;;;4981229;28;20180;-68
2022/10/11 04:29:28;;;;;;;724.83;674.67;;;13.50;49.90;;;;;;4975229;28;20259;-68
2022/10/11 04:31:54;;;;;;;745.57;690.77;;;13.50;49.50;;;;;;4975059;28;20647;-68
2022/10/11 04:34:19;;;;;;;564.50;531.70;;;13.60;49.60;;;;;;4975262;28;20598;-68
2022/10/11 04:36:45;;;;;;;607.80;569.17;;;13.60;49.60;;;;;;4989758;28;20696;-68
2022/10/11 04:39:11;;;;;;;609.37;568.83;;;13.60;49.90;;;;;;4994433;28;20556;-69
2022/10/11 04:41:37;;;;;;;605.37;566.80;;;13.50;49.70;;;;;;4993996;28;20207;-68
2022/10/11 04:44:03;;;;;;;416.80;392.63;;;13.60;49.10;;;;;;4994391;28;20429;-68
2022/10/11 04:46:28;;;;;;;637.40;598.43;;;13.60;49.50;;;;;;4985173;28;20190;-68
2022/10/11 04:48:54;;;;;;;756.20;701.60;;;13.60;49.50;;;;;;4974829;28;20657;-68
2022/10/11 04:51:20;;;;;;;495.73;464.80;;;13.70;49.40;;;;;;4973224;28;20824;-68
2022/10/11 04:53:46;;;;;;;550.63;517.23;;;13.60;49.60;;;;;;4977560;28;20264;-68
2022/10/11 04:56:13;;;;;;;828.00;764.23;;;13.60;49.60;;;;;;4982170;28;20554;-68
2022/10/11 04:58:40;;;;;;;732.70;684.67;;;13.50;49.50;;;;;;4995557;28;20489;-67
2022/10/11 05:01:07;;;;;;;787.57;730.23;;;13.60;50.30;;;;;;4994900;28;20811;-69
2022/10/11 05:03:33;;;;;;;509.67;477.90;;;13.60;50.00;;;;;;4994900;28;20464;-69
2022/10/11 05:05:59;;;;;;;659.47;617.90;;;13.70;50.50;;;;;;4987333;28;20996;-70
2022/10/11 05:08:25;;;;;;;518.60;488.07;;;13.70;49.70;;;;;;4975043;28;20439;-68
2022/10/11 05:11:04;;;;;;;619.83;582.27;;;13.50;51.00;;;;;;4974327;28;20211;-68
2022/10/11 05:13:31;;;;;;;725.87;677.13;;;13.50;51.50;;;;;;4978724;28;20411;-68
2022/10/11 05:15:57;;;;;;;531.33;497.90;;;13.50;53.20;;;;;;4987826;28;20424;-70
2022/10/11 05:18:23;;;;;;;559.00;525.73;;;13.50;54.00;;;;;;4987142;28;20800;-68
2022/10/11 05:20:58;;;;;;;714.90;670.60;;;13.50;53.90;;;;;;4993941;28;20262;-70
2022/10/11 05:23:23;;;;;;;630.47;593.10;;;13.40;53.50;;;;;;4994978;28;20423;-70
2022/10/11 05:25:49;;;;;;;486.60;457.50;;;13.40;54.40;;;;;;4984648;28;20866;-70
2022/10/11 05:28:14;;;;;;;516.83;483.27;;;13.50;54.50;;;;;;4974149;28;20191;-70
2022/10/11 05:30:40;;;;;;;538.43;506.00;;;13.70;53.60;;;;;;4974486;28;20197;-70
2022/10/11 05:33:05;;;;;;;564.10;529.60;;;13.70;52.20;;;;;;4975730;28;20542;-70
2022/10/11 05:35:31;;;;;;;613.63;571.83;;;13.70;51.80;;;;;;4980446;28;20274;-69
2022/10/11 05:37:56;;;;;;;530.10;492.90;;;13.80;51.30;;;;;;4993404;28;20240;-69
2022/10/11 05:40:22;;;;;;;603.17;564.67;;;13.90;51.80;;;;;;4993224;28;20601;-68
2022/10/11 05:42:47;;;;;;;641.07;597.17;;;13.90;49.90;;;;;;4992956;28;20214;-69
2022/10/11 05:45:13;;;;;;;554.03;518.00;;;13.90;50.40;;;;;;4989145;28;20201;-68
2022/10/11 05:47:38;;;;;;;535.97;500.97;;;13.90;50.50;;;;;;4976203;28;20181;-69
2022/10/11 05:50:04;;;;;;;448.73;419.93;;;13.90;49.70;;;;;;4973600;28;20201;-69
2022/10/11 05:52:30;;;;;;;615.73;575.63;;;14.00;49.20;;;;;;4973537;28;20200;-69
2022/10/11 05:54:55;;;;;;;701.30;654.27;;;13.90;49.30;;;;;;4973392;28;20475;-68
2022/10/11 05:57:21;;;;;;;506.57;476.87;;;13.90;49.00;;;;;;4994549;28;20189;-69
2022/10/11 05:59:46;;;;;;;729.53;678.27;;;14.00;50.00;;;;;;4991626;28;20742;-69
2022/10/11 06:02:12;;;;;;;585.13;548.67;;;14.00;49.30;;;;;;4992752;28;20187;-69
2022/10/11 06:04:38;;;;;;;733.80;684.23;;;14.00;49.30;;;;;;4993146;28;20188;-68
2022/10/11 06:07:05;;;;;;;617.33;576.13;;;13.90;48.80;;;;;;4976222;28;20436;-69
2022/10/11 06:09:30;;;;;;;695.73;650.50;;;13.90;49.90;;;;;;4973506;28;20412;-69
2022/10/11 06:11:56;;;;;;;484.83;455.80;;;13.90;49.90;;;;;;4987821;28;20995;-69
2022/10/11 06:14:22;;;;;;;349.93;329.43;;;14.00;50.70;;;;;;4984264;28;20203;-69
2022/10/11 06:16:48;;;;;;;592.00;554.77;;;14.10;48.00;;;;;;4991758;28;20669;-69
2022/10/11 06:19:13;;;;;;;657.70;617.77;;;14.20;46.80;;;;;;4992411;28;20542;-69
2022/10/11 06:21:39;;;;;;;668.10;624.53;;;14.20;48.30;;;;;;4992434;28;20204;-68
2022/10/11 06:24:05;;;;;;;601.63;558.67;;;14.20;48.00;;;;;;4992873;28;20546;-69
2022/10/11 06:26:31;;;;;;;713.20;668.23;;;14.20;48.20;;;;;;4974543;28;20181;-69
2022/10/11 06:28:57;;;;;;;763.30;712.33;;;14.30;47.80;;;;;;4973171;28;20424;-70
2022/10/11 06:31:23;;;;;;;722.73;676.33;;;14.30;46.60;;;;;;4972852;28;20222;-68
2022/10/11 06:33:48;;;;;;;692.60;640.43;;;14.30;46.60;;;;;;4975948;28;20420;-72
2022/10/11 06:36:15;;;;;;;702.60;656.77;;;14.20;46.80;;;;;;4993202;28;20203;-69
2022/10/11 06:38:41;;;;;;;486.93;455.90;;;14.30;47.80;;;;;;4991907;28;20287;-69
2022/10/11 06:41:17;;;;;;;550.57;515.43;;;14.40;46.40;;;;;;4991714;28;20836;-69
2022/10/11 06:43:43;;;;;;;693.53;647.33;;;14.40;45.80;;;;;;4990295;28;20184;-69
2022/10/11 06:46:09;;;;;;;512.63;479.97;;;14.30;45.50;;;;;;4973435;28;20435;-68
2022/10/11 06:48:38;;;;;;;476.33;446.60;;;14.30;46.70;;;;;;4968563;28;20819;-69
2022/10/11 06:51:03;;;;;;;660.50;613.53;;;14.30;45.90;;;;;;4978649;28;20224;-69
2022/10/11 06:53:29;;;;;;;694.60;649.50;;;14.30;45.10;;;;;;4990976;28;20446;-70
2022/10/11 06:56:01;;;;;;;452.80;425.17;;;14.30;45.60;;;;;;4983571;28;20189;-69
2022/10/11 06:58:27;;;;;;;850.90;794.73;;;14.20;46.60;;;;;;4978266;28;20209;-69
2022/10/11 07:00:52;;;;;;;458.83;429.07;;;14.30;45.90;;;;;;4968462;28;20856;-69
2022/10/11 07:03:18;;;;;;;582.27;544.30;;;14.20;47.20;;;;;;4968631;28;20425;-69
2022/10/11 07:05:43;;;;;;;618.97;576.53;;;14.30;47.60;;;;;;4967777;28;20181;-70
2022/10/11 07:08:09;;;;;;;564.77;525.83;;;14.30;46.10;;;;;;4972343;28;20201;-69
2022/10/11 07:10:35;;;;;;;728.70;679.17;;;14.40;47.10;;;;;;4970207;28;20208;-70
2022/10/11 07:13:01;;;;;;;683.10;637.87;;;14.40;46.30;;;;;;4972189;28;20184;-69
2022/10/11 07:15:26;;;;;;;685.83;642.03;;;14.50;45.40;;;;;;4988658;28;20770;-69
2022/10/11 07:17:52;;;;;;;530.60;499.60;;;14.40;45.20;;;;;;4988710;28;20215;-69
2022/10/11 07:20:17;;;;;;;536.20;503.60;;;14.40;44.40;;;;;;4988265;28;20265;-69
2022/10/11 07:22:43;;;;;;;687.80;640.60;;;14.50;44.30;;;;;;4989714;28;20188;-70
2022/10/11 07:25:08;;;;;;;720.07;665.47;;;14.40;43.30;;;;;;4986036;28;20207;-69
2022/10/11 07:27:34;;;;;;;648.90;604.77;;;14.40;42.90;;;;;;4996036;28;20192;-69
2022/10/11 07:30:00;;;;;;;605.53;564.40;;;14.40;42.20;;;;;;4991379;28;20214;-69
2022/10/11 07:32:25;;;;;;;487.37;459.10;;;14.30;43.50;;;;;;4992198;28;20184;-69
2022/10/11 07:34:51;;;;;;;611.10;570.57;;;14.40;42.90;;;;;;4991733;28;20189;-69
2022/10/11 07:37:16;;;;;;;656.30;613.47;;;14.30;42.00;;;;;;4993294;28;20188;-69
2022/10/11 07:39:42;;;;;;;579.67;538.80;;;14.30;42.60;;;;;;4993604;28;20188;-69
2022/10/11 07:42:08;;;;;;;685.50;637.47;;;14.30;42.20;;;;;;5016559;23;20231;-73
2022/10/11 07:44:35;;;;;;;550.83;513.53;;;14.20;42.80;;;;;;4991519;28;20684;-72
2022/10/11 07:47:00;;;;;;;817.57;760.77;;;14.20;43.20;;;;;;4991753;28;20459;-70
2022/10/11 07:49:26;;;;;;;654.93;612.93;;;14.20;43.30;;;;;;4991549;28;20941;-71
2022/10/11 07:51:51;;;;;;;658.93;613.03;;;14.20;43.50;;;;;;4992246;28;20690;-70
2022/10/11 07:54:17;;;;;;;691.27;641.10;;;14.20;43.80;;;;;;4978532;28;20191;-70
2022/10/11 07:56:42;;;;;;;657.70;613.03;;;14.20;43.30;;;;;;4963423;28;20576;-75
2022/10/11 07:59:09;;;;;;;656.03;614.20;;;14.20;43.30;;;;;;4972861;28;20209;-74
2022/10/11 08:01:35;;;;;;;640.60;594.53;;;14.30;43.30;;;;;;4971538;28;20564;-72
2022/10/11 08:04:00;;;;;;;525.87;493.10;;;14.20;43.50;;;;;;4972055;28;20519;-72
2022/10/11 08:06:30;;;;;;;603.50;562.70;;;14.00;44.90;;;;;;4982579;28;20215;-74
2022/10/11 08:08:57;;;;;;;585.53;549.00;;;14.00;44.90;;;;;;4991331;28;20234;-73
2022/10/11 08:11:24;;;;;;;691.10;641.37;;;14.00;44.90;;;;;;4991030;28;20496;-74
2022/10/11 08:13:50;;;;;;;603.13;561.07;;;14.20;44.60;;;;;;4977430;28;20432;-71
2022/10/11 08:16:16;;;;;;;615.43;574.40;;;14.40;43.70;;;;;;4972024;28;20435;-71
2022/10/11 08:18:41;;;;;;;688.50;639.80;;;14.50;42.20;;;;;;4971259;28;20464;-72
2022/10/11 08:21:12;;;;;;;799.77;737.97;;;14.50;41.20;;;;;;4972767;28;20970;-70
2022/10/11 08:23:38;;;;;;;632.90;592.10;;;14.50;41.60;;;;;;4975744;28;20594;-72
2022/10/11 08:26:04;;;;;;;757.73;705.67;;;14.40;40.20;;;;;;4974723;28;20831;-72
2022/10/11 08:28:30;;;;;;;561.37;526.40;;;14.30;43.00;;;;;;4974857;28;20453;-72
2022/10/11 08:30:56;;;;;;;565.53;529.33;;;14.40;42.40;;;;;;4974364;28;20476;-72
2022/10/11 08:33:23;;;;;;;743.47;692.53;;;14.60;42.40;;;;;;4976051;28;20184;-72
2022/10/11 08:35:51;;;;;;;682.20;634.40;;;14.70;40.40;;;;;;4975247;28;20275;-72
2022/10/11 08:38:17;;;;;;;741.23;689.63;;;14.70;40.40;;;;;;4975400;28;20888;-72
2022/10/11 08:40:52;;;;;;;634.23;592.33;;;14.70;39.90;;;;;;4974536;28;20459;-72
2022/10/11 08:43:44;;;;;;;567.47;528.37;;;14.70;40.40;;;;;;4975478;28;20435;-72
2022/10/11 08:46:12;;;;;;;716.43;665.17;;;14.80;39.40;;;;;;4973151;28;20480;-72
2022/10/11 08:48:45;;;;;;;765.70;707.23;;;14.90;38.50;;;;;;4975234;28;20497;-72
2022/10/11 08:51:19;;;;;;;649.43;605.73;;;15.00;38.00;;;;;;4972942;28;20449;-71
2022/10/11 08:54:00;;;;;;;568.40;531.53;;;15.00;37.20;;;;;;4974772;28;20524;-70
2022/10/11 08:56:26;;;;;;;630.87;585.50;;;15.10;37.40;;;;;;4975158;28;20428;-70
2022/10/11 08:59:08;;;;;;;752.27;701.07;;;15.20;37.20;;;;;;4973062;28;20827;-70
2022/10/11 09:01:34;;;;;;;720.13;664.93;;;15.10;36.40;;;;;;4974558;28;21002;-71
2022/10/11 09:04:01;;;;;;;756.27;703.00;;;15.00;36.10;;;;;;4974618;28;20459;-72
2022/10/11 09:06:39;;;;;;;739.50;688.53;;;15.00;36.50;;;;;;4974472;28;20983;-72
2022/10/11 09:09:20;;;;;;;766.70;717.03;;;15.20;38.00;;;;;;4973163;28;20424;-72
2022/10/11 09:11:57;;;;;;;827.47;769.13;;;15.50;36.60;;;;;;4970154;28;20448;-72
2022/10/11 09:14:35;;;;;;;719.07;667.77;;;15.60;34.30;;;;;;4970084;28;20502;-72
2022/10/11 09:17:25;;;;;;;752.90;695.37;;;15.70;33.70;;;;;;4970205;28;20444;-72
2022/10/11 09:20:01;;;;;;;758.30;700.50;;;15.80;33.30;;;;;;4958252;28;20460;-71
2022/10/11 09:22:27;;;;;;;797.47;738.67;;;15.80;32.10;;;;;;4969272;28;20428;-71
2022/10/11 09:25:31;;;;;;;778.87;719.73;;;16.00;32.20;;;;;;4970579;28;20439;-71
2022/10/11 09:28:27;;;;;;;533.93;501.90;;;16.20;31.20;;;;;;4969274;28;20600;-72
2022/10/11 09:30:55;;;;;;;562.50;521.17;;;16.40;30.90;;;;;;4957202;28;20511;-71
2022/10/11 09:33:34;;;;;;;850.63;778.63;;;16.50;30.30;;;;;;4970492;28;20691;-74
2022/10/11 09:36:11;;;;;;;896.10;826.10;;;16.40;29.60;;;;;;4970101;28;20428;-71
2022/10/11 09:38:49;;;;;;;644.60;598.67;;;16.20;30.00;;;;;;4971609;28;20460;-72
2022/10/11 09:41:23;;;;;;;488.27;458.63;;;16.30;30.00;;;;;;4969943;28;20534;-71
2022/10/11 09:43:50;;;;;;;464.30;436.03;;;16.40;30.30;;;;;;4970624;28;20721;-71
2022/10/11 09:46:35;;;;;;;790.63;733.40;;;16.40;29.50;;;;;;4968385;28;20869;-71
2022/10/11 09:49:10;;;;;;;412.80;386.63;;;16.30;29.70;;;;;;4976917;28;20421;-72
2022/10/11 09:51:36;;;;;;;658.63;609.27;;;16.20;30.50;;;;;;4972554;28;20456;-70
2022/10/11 09:54:04;;;;;;;719.13;668.07;;;16.30;30.70;;;;;;4974186;28;20421;-71
2022/10/11 09:56:33;;;;;;;706.43;657.03;;;16.40;30.70;;;;;;4973523;28;20938;-71
2022/10/11 09:59:27;;;;;;;633.17;586.73;;;16.60;29.60;;;;;;4974653;28;20464;-71
2022/10/11 10:02:11;;;;;;;649.17;599.30;;;16.70;28.00;;;;;;4973456;28;20503;-72
2022/10/11 10:05:09;;;;;;;937.97;861.83;;;16.90;28.70;;;;;;4975016;28;20413;-72
2022/10/11 10:07:37;;;;;;;643.23;587.90;;;17.10;27.10;;;;;;4972248;28;20468;-72
2022/10/11 10:10:25;;;;;;;712.73;654.27;;;17.10;27.00;;;;;;4972559;28;20456;-72
2022/10/11 10:12:59;;;;;;;827.33;760.20;;;16.80;26.60;;;;;;4973296;28;20447;-72
2022/10/11 10:15:29;;;;;;;697.47;648.00;;;16.90;27.30;;;;;;4974979;28;20845;-72
2022/10/11 10:17:54;;;;;;;647.20;597.93;;;17.10;27.10;;;;;;4974460;28;20448;-72
2022/10/11 10:20:26;;;;;;;871.17;799.30;;;17.10;27.20;;;;;;4974532;28;20788;-70
2022/10/11 10:22:52;;;;;;;459.97;430.03;;;17.10;26.60;;;;;;4973799;28;20182;-72
2022/10/11 10:25:33;;;;;;;607.53;566.30;;;17.20;27.20;;;;;;4975152;28;20793;-72
2022/10/11 10:28:01;;;;;;;611.63;568.30;;;17.30;26.40;;;;;;4974873;28;20934;-71
2022/10/11 10:30:28;;;;;;;381.90;357.50;;;17.40;26.50;;;;;;4974044;28;20574;-71
2022/10/11 10:33:08;;;;;;;443.97;413.07;;;17.50;25.30;;;;;;4974844;28;20417;-71
2022/10/11 10:36:00;;;;;;;655.33;601.87;;;17.60;26.10;;;;;;4975113;28;20767;-71
2022/10/11 10:38:39;;;;;;;678.57;625.73;;;17.70;24.80;;;;;;4974175;28;20495;-72
2022/10/11 10:41:09;;;;;;;786.43;719.27;;;17.40;24.90;;;;;;4974177;28;20468;-71
2022/10/11 10:43:38;;;;;;;607.07;560.50;;;17.00;25.20;;;;;;4974792;28;20495;-69
2022/10/11 10:46:22;;;;;;;617.90;573.03;;;16.80;26.60;;;;;;4974289;28;20516;-71
2022/10/11 10:49:32;;;;;;;627.97;581.30;;;16.80;27.30;;;;;;4974975;28;20413;-72
2022/10/11 10:52:17;;;;;;;764.87;701.20;;;16.10;28.00;;;;;;4962112;28;20448;-71
2022/10/11 10:55:27;;;;;;;560.47;521.13;;;15.90;30.90;;;;;;4974408;28;20479;-71
2022/10/11 10:58:31;;;;;;;600.50;559.63;;;15.90;30.80;;;;;;4973405;28;20491;-71
2022/10/11 11:01:12;;;;;;;613.80;570.97;;;15.80;30.80;;;;;;4972496;28;20444;-72
2022/10/11 11:04:09;;;;;;;812.80;756.60;;;15.70;30.80;;;;;;4977604;28;20479;-70
2022/10/11 11:06:49;;;;;;;678.83;627.33;;;15.50;32.00;;;;;;4978601;28;20420;-72
2022/10/11 11:09:27;;;;;;;560.27;523.63;;;15.40;32.00;;;;;;4978871;28;20507;-71
2022/10/11 11:12:29;;;;;;;677.03;629.67;;;15.40;32.50;;;;;;4977567;28;20486;-71
2022/10/11 11:15:19;;;;;;;644.23;600.27;;;15.40;33.00;;;;;;4978205;28;20446;-71
2022/10/11 11:18:12;;;;;;;668.77;625.10;;;15.50;33.40;;;;;;4978788;28;20456;-71
2022/10/11 11:20:54;;;;;;;471.63;441.57;;;15.50;32.40;;;;;;4977888;28;20433;-73
2022/10/11 11:23:35;;;;;;;535.83;499.90;;;15.60;31.40;;;;;;4978757;28;20408;-71
2022/10/11 11:26:32;;;;;;;636.17;590.63;;;15.50;31.70;;;;;;4978242;28;20944;-72
2022/10/11 11:29:28;;;;;;;689.63;640.90;;;15.40;30.50;;;;;;4978001;28;20775;-72
2022/10/11 11:32:08;;;;;;;797.03;737.60;;;15.50;30.90;;;;;;4978157;28;20428;-72
2022/10/11 11:34:44;;;;;;;757.97;704.87;;;15.60;30.60;;;;;;4979164;28;20408;-72
2022/10/11 11:37:18;;;;;;;716.03;664.17;;;15.70;30.40;;;;;;4978049;28;20428;-72
2022/10/11 11:39:48;;;;;;;710.77;660.17;;;15.90;31.20;;;;;;4978446;28;20464;-72
2022/10/11 11:42:16;;;;;;;721.53;666.93;;;16.10;29.30;;;;;;4978622;28;20507;-70
2022/10/11 11:44:46;;;;;;;626.93;583.63;;;16.30;29.10;;;;;;4976539;28;20460;-72
2022/10/11 11:47:30;;;;;;;726.90;668.47;;;16.50;28.10;;;;;;4978660;28;20401;-71
2022/10/11 11:50:04;;;;;;;651.80;600.77;;;16.80;26.70;;;;;;4979557;28;20910;-72
2022/10/11 11:52:38;;;;;;;596.97;552.20;;;17.00;26.50;;;;;;4981909;28;20419;-73
2022/10/11 11:55:17;;;;;;;743.17;689.20;;;17.00;26.40;;;;;;4977600;28;20428;-72
2022/10/11 11:58:07;;;;;;;533.83;494.33;;;17.10;25.70;;;;;;4977387;28;21001;-71
2022/10/11 12:01:05;;;;;;;508.43;470.33;;;17.20;25.40;;;;;;4977867;28;20428;-71
2022/10/11 12:03:36;;;;;;;443.27;410.77;;;17.30;25.10;;;;;;4960994;28;20465;-70
2022/10/11 12:06:14;;;;;;;620.17;571.13;;;17.50;24.30;;;;;;4966700;28;20422;-70
2022/10/11 12:08:45;;;;;;;713.27;657.13;;;17.50;23.90;;;;;;4965635;28;20429;-70
2022/10/11 12:11:25;;;;;;;639.00;585.63;;;17.40;24.80;;;;;;4969945;28;20452;-70
2022/10/11 12:13:53;;;;;;;863.80;788.00;;;17.60;23.90;;;;;;4995691;28;20439;-70
2022/10/11 12:16:20;;;;;;;718.40;663.63;;;17.60;23.60;;;;;;4988774;28;20491;-70
2022/10/11 12:19:12;;;;;;;862.07;783.73;;;17.70;23.60;;;;;;4978625;28;20457;-70
2022/10/11 12:21:42;;;;;;;372.13;346.03;;;17.10;24.40;;;;;;4974278;28;20444;-71
2022/10/11 12:24:19;;;;;;;434.90;403.53;;;16.90;25.60;;;;;;4973580;29;20425;-71
2022/10/11 12:26:47;;;;;;;519.27;476.57;;;17.10;24.50;;;;;;4974775;29;20552;-70
2022/10/11 12:29:16;;;;;;;779.43;714.07;;;17.20;23.60;;;;;;4997417;28;20417;-69